createdAt,value
2018-07-31T00:01:37.852Z,74.06
2018-07-31T00:04:06.653Z,74.30
2018-07-31T00:06:38.759Z,74.24
2018-07-31T00:09:28.422Z,73.89
2018-07-31T00:11:57.046Z,73.42
2018-07-31T00:14:33.327Z,73.94
2018-07-31T00:17:01.914Z,74.21
2018-07-31T00:19:30.368Z,74.96
2018-07-31T00:21:58.872Z,75.36
2018-07-31T00:24:27.483Z,76.06
2018-07-31T00:26:56.350Z,76.13
2018-07-31T00:29:24.844Z,76.12
2018-07-31T00:31:53.488Z,75.57
2018-07-31T00:34:22.051Z,75.81
2018-07-31T00:36:50.495Z,75.96
2018-07-31T00:39:19.013Z,76.43
2018-07-31T00:41:47.601Z,76.34
2018-07-31T00:44:16.127Z,76.50
2018-07-31T00:46:44.714Z,76.91
2018-07-31T00:49:13.180Z,77.25
2018-07-31T00:51:41.705Z,77.17
2018-07-31T00:54:10.175Z,77.36
2018-07-31T00:56:38.787Z,77.08
2018-07-31T00:59:07.329Z,77.11
2018-07-31T01:01:37.957Z,77.29
2018-07-31T01:04:06.445Z,77.44
2018-07-31T01:06:40.221Z,77.55
2018-07-31T01:09:10.274Z,77.10
2018-07-31T01:11:39.057Z,77.32
2018-07-31T01:14:20.628Z,77.08
2018-07-31T01:16:49.129Z,77.13
2018-07-31T01:19:17.658Z,77.54
2018-07-31T01:21:46.122Z,77.52
2018-07-31T01:24:14.791Z,78.02
2018-07-31T01:26:43.272Z,77.69
2018-07-31T01:29:11.845Z,78.10
2018-07-31T01:31:40.441Z,77.26
2018-07-31T01:34:17.029Z,77.63
2018-07-31T01:36:45.585Z,77.60
2018-07-31T01:39:14.185Z,78.14
2018-07-31T01:41:43.067Z,77.43
2018-07-31T01:47:34.399Z,77.30
2018-07-31T01:50:02.967Z,77.00
2018-07-31T01:52:31.492Z,77.99
2018-07-31T01:55:00.110Z,78.50
2018-07-31T01:57:28.623Z,78.47
2018-07-31T01:59:57.049Z,78.61
2018-07-31T02:02:25.590Z,78.82
2018-07-31T02:04:54.229Z,78.43
2018-07-31T02:07:22.694Z,77.61
2018-07-31T02:09:51.252Z,77.55
2018-07-31T02:12:19.726Z,77.30
2018-07-31T02:14:48.299Z,77.08
2018-07-31T02:17:16.825Z,77.93
2018-07-31T02:19:45.462Z,78.81
2018-07-31T02:22:13.962Z,78.66
2018-07-31T02:24:42.581Z,79.22
2018-07-31T02:27:11.131Z,78.58
2018-07-31T02:29:45.118Z,78.55
2018-07-31T02:32:13.621Z,79.04
2018-07-31T02:34:42.209Z,79.34
2018-07-31T02:37:10.768Z,78.76
2018-07-31T02:39:40.292Z,78.62
2018-07-31T02:42:08.862Z,78.45
2018-07-31T02:44:37.373Z,79.35
2018-07-31T02:47:06.195Z,79.39
2018-07-31T02:49:34.745Z,78.90
2018-07-31T02:52:03.403Z,78.85
2018-07-31T02:54:31.913Z,78.76
2018-07-31T02:57:00.363Z,79.36
2018-07-31T02:59:28.892Z,79.81
2018-07-31T03:01:57.549Z,80.18
2018-07-31T03:04:26.042Z,79.64
2018-07-31T03:06:54.593Z,80.02
2018-07-31T03:09:23.096Z,80.80
2018-07-31T03:11:51.578Z,80.85
2018-07-31T03:14:20.049Z,80.73
2018-07-31T03:16:48.483Z,80.50
2018-07-31T03:19:17.182Z,80.11
2018-07-31T03:21:45.798Z,80.21
2018-07-31T03:24:14.300Z,81.08
2018-07-31T03:26:42.866Z,80.98
2018-07-31T03:29:11.383Z,81.40
2018-07-31T03:31:39.842Z,80.97
2018-07-31T03:34:08.365Z,81.33
2018-07-31T03:36:36.895Z,81.14
2018-07-31T03:39:07.464Z,80.27
2018-07-31T03:41:36.016Z,80.32
2018-07-31T03:44:04.516Z,80.39
2018-07-31T03:46:49.860Z,80.94
2018-07-31T03:49:18.458Z,80.84
2018-07-31T03:51:46.951Z,81.33
2018-07-31T03:54:15.537Z,81.62
2018-07-31T03:56:44.132Z,82.01
2018-07-31T03:59:12.686Z,82.10
2018-07-31T04:01:41.385Z,81.76
2018-07-31T04:04:18.368Z,81.59
2018-07-31T04:06:46.962Z,81.38
2018-07-31T04:09:15.657Z,81.73
2018-07-31T04:11:44.125Z,82.09
2018-07-31T04:14:12.568Z,81.99
2018-07-31T04:16:41.139Z,82.42
2018-07-31T04:19:09.573Z,82.89
2018-07-31T04:21:38.085Z,82.48
2018-07-31T04:24:06.574Z,82.36
2018-07-31T04:26:35.127Z,81.76
2018-07-31T04:29:03.699Z,82.30
2018-07-31T04:31:32.172Z,82.48
2018-07-31T04:34:00.635Z,82.37
2018-07-31T04:36:29.153Z,82.65
2018-07-31T04:38:57.592Z,81.82
2018-07-31T04:41:26.023Z,82.02
2018-07-31T04:43:54.586Z,81.87
2018-07-31T04:46:23.197Z,81.56
2018-07-31T04:48:51.637Z,81.99
2018-07-31T04:51:20.147Z,81.51
2018-07-31T04:53:48.612Z,81.33
2018-07-31T04:56:17.204Z,80.79
2018-07-31T04:58:45.725Z,81.01
2018-07-31T05:01:14.264Z,80.49
2018-07-31T05:03:42.853Z,80.21
2018-07-31T05:06:11.543Z,80.63
2018-07-31T05:08:40.141Z,80.23
2018-07-31T05:11:08.734Z,79.68
2018-07-31T05:13:37.286Z,79.29
2018-07-31T05:16:06.073Z,78.51
2018-07-31T05:18:43.675Z,78.11
2018-07-31T05:21:12.115Z,77.95
2018-07-31T05:23:40.663Z,77.49
2018-07-31T05:26:09.143Z,76.95
2018-07-31T05:28:37.607Z,76.84
2018-07-31T05:31:06.204Z,75.94
2018-07-31T05:33:34.640Z,75.70
2018-07-31T05:36:03.236Z,75.59
2018-07-31T05:38:31.665Z,74.88
2018-07-31T05:41:00.180Z,74.16
2018-07-31T05:43:28.687Z,74.89
2018-07-31T05:45:57.141Z,74.25
2018-07-31T05:48:25.745Z,73.33
2018-07-31T05:50:54.226Z,72.11
2018-07-31T05:53:23.852Z,72.03
2018-07-31T05:55:52.434Z,70.89
2018-07-31T05:58:20.912Z,70.80
2018-07-31T06:00:49.539Z,70.41
2018-07-31T06:03:18.172Z,70.05
2018-07-31T06:05:46.637Z,69.87
2018-07-31T06:08:15.159Z,69.87
2018-07-31T06:10:43.728Z,69.78
2018-07-31T06:13:12.163Z,69.51
2018-07-31T06:15:40.688Z,69.75
2018-07-31T06:18:09.192Z,69.55
2018-07-31T06:20:37.767Z,69.74
2018-07-31T06:23:06.240Z,69.57
2018-07-31T06:25:34.873Z,68.79
2018-07-31T06:28:03.451Z,68.28
2018-07-31T06:30:32.009Z,68.23
2018-07-31T06:33:00.522Z,67.98
2018-07-31T06:35:29.050Z,68.15
2018-07-31T06:37:57.642Z,67.90
2018-07-31T06:40:26.159Z,67.31
2018-07-31T06:42:54.802Z,67.25
2018-07-31T06:45:23.298Z,66.79
2018-07-31T06:47:51.768Z,66.67
2018-07-31T06:50:20.367Z,66.84
2018-07-31T06:52:48.823Z,67.10
2018-07-31T06:55:17.530Z,67.26
2018-07-31T06:57:46.002Z,66.88
2018-07-31T07:00:14.469Z,67.07
2018-07-31T07:02:43.099Z,66.52
2018-07-31T07:05:11.665Z,66.56
2018-07-31T07:07:40.096Z,66.07
2018-07-31T07:10:08.753Z,67.02
2018-07-31T07:12:37.237Z,67.18
2018-07-31T07:15:05.962Z,66.61
2018-07-31T07:17:34.592Z,67.01
2018-07-31T07:20:03.082Z,67.03
2018-07-31T07:22:31.697Z,66.44
2018-07-31T07:25:00.227Z,66.37
2018-07-31T07:27:28.705Z,66.63
2018-07-31T07:29:57.358Z,66.56
2018-07-31T07:32:25.880Z,66.02
2018-07-31T07:34:54.414Z,66.13
2018-07-31T07:37:22.968Z,65.82
2018-07-31T07:39:51.567Z,65.04
2018-07-31T07:42:20.215Z,64.54
2018-07-31T07:44:48.703Z,64.54
2018-07-31T07:47:17.298Z,63.64
2018-07-31T07:49:45.870Z,63.21
2018-07-31T07:52:14.358Z,62.67
2018-07-31T07:54:43.160Z,62.19
2018-07-31T07:57:11.730Z,62.12
2018-07-31T07:59:40.281Z,61.16
2018-07-31T08:02:08.783Z,60.33
2018-07-31T08:04:37.238Z,60.42
2018-07-31T08:07:06.083Z,59.86
2018-07-31T08:09:34.813Z,59.75
2018-07-31T08:12:03.332Z,58.44
2018-07-31T08:14:32.006Z,58.15
2018-07-31T08:17:00.496Z,58.16
2018-07-31T08:19:28.966Z,58.07
2018-07-31T08:21:57.457Z,57.25
2018-07-31T08:24:25.927Z,56.46
2018-07-31T08:26:54.436Z,55.53
2018-07-31T08:29:23.038Z,54.76
2018-07-31T08:32:06.337Z,54.93
2018-07-31T08:34:34.982Z,53.87
2018-07-31T08:37:03.358Z,54.14
2018-07-31T08:39:31.994Z,53.21
2018-07-31T08:42:00.558Z,52.24
2018-07-31T08:44:29.035Z,52.50
2018-07-31T08:46:57.623Z,52.25
2018-07-31T08:49:26.109Z,51.61
2018-07-31T08:51:54.928Z,52.06
2018-07-31T08:54:23.385Z,51.38
2018-07-31T08:56:52.001Z,50.14
2018-07-31T08:59:20.440Z,50.56
2018-07-31T09:01:48.940Z,49.14
2018-07-31T09:04:17.415Z,49.02
2018-07-31T09:06:45.957Z,48.97
2018-07-31T09:09:14.505Z,48.70
2018-07-31T09:11:43.056Z,48.19
2018-07-31T09:14:11.528Z,48.28
2018-07-31T09:16:40.000Z,47.31
2018-07-31T09:19:08.644Z,46.81
2018-07-31T09:21:37.392Z,46.30
2018-07-31T09:24:05.939Z,46.25
2018-07-31T09:26:34.441Z,46.31
2018-07-31T09:29:02.930Z,46.47
2018-07-31T09:31:31.371Z,46.36
2018-07-31T09:33:59.908Z,46.09
2018-07-31T09:36:28.387Z,44.76
2018-07-31T09:38:57.054Z,45.76
2018-07-31T09:41:25.536Z,45.42
2018-07-31T09:43:54.034Z,44.93
2018-07-31T09:46:22.601Z,44.86
2018-07-31T09:48:51.077Z,45.41
2018-07-31T09:51:19.608Z,44.13
2018-07-31T09:53:48.161Z,43.09
2018-07-31T09:56:16.732Z,43.05
2018-07-31T09:58:45.240Z,42.37
2018-07-31T10:01:18.572Z,43.01
2018-07-31T10:03:47.316Z,43.45
2018-07-31T10:06:15.908Z,43.10
2018-07-31T10:08:44.366Z,44.51
2018-07-31T10:11:17.288Z,44.49
2018-07-31T10:13:46.918Z,43.34
2018-07-31T10:16:15.450Z,43.35
2018-07-31T10:18:43.940Z,43.70
2018-07-31T10:21:12.523Z,44.08
2018-07-31T10:23:41.062Z,43.72
2018-07-31T10:26:09.552Z,42.37
2018-07-31T10:28:38.114Z,42.04
2018-07-31T10:31:06.859Z,41.69
2018-07-31T10:33:35.373Z,41.25
2018-07-31T10:36:03.834Z,41.47
2018-07-31T10:38:32.964Z,40.77
2018-07-31T10:41:01.512Z,39.90
2018-07-31T10:43:30.081Z,39.91
2018-07-31T10:45:58.681Z,39.29
2018-07-31T10:48:27.250Z,40.08
2018-07-31T10:50:55.925Z,40.95
2018-07-31T10:53:24.598Z,39.86
2018-07-31T10:55:53.906Z,39.45
2018-07-31T10:58:22.424Z,40.70
2018-07-31T11:00:51.070Z,40.30
2018-07-31T11:03:19.575Z,41.15
2018-07-31T11:05:48.052Z,40.61
2018-07-31T11:08:16.633Z,40.13
2018-07-31T11:10:45.117Z,38.70
2018-07-31T11:13:13.715Z,38.68
2018-07-31T11:15:42.266Z,37.74
2018-07-31T11:18:10.787Z,36.63
2018-07-31T11:20:39.356Z,37.31
2018-07-31T11:23:07.936Z,38.10
2018-07-31T11:25:36.505Z,38.57
2018-07-31T11:28:04.928Z,39.30
2018-07-31T11:30:33.469Z,39.90
2018-07-31T11:33:01.996Z,39.84
2018-07-31T11:35:30.532Z,38.92
2018-07-31T11:37:59.012Z,37.86
2018-07-31T11:40:27.464Z,37.38
2018-07-31T11:42:55.968Z,37.26
2018-07-31T11:45:24.447Z,36.81
2018-07-31T11:47:53.131Z,34.79
2018-07-31T11:50:21.617Z,33.58
2018-07-31T11:52:50.109Z,34.62
2018-07-31T11:55:18.686Z,35.21
2018-07-31T11:57:47.422Z,36.08
2018-07-31T12:00:16.001Z,35.53
2018-07-31T12:02:44.538Z,34.16
2018-07-31T12:05:12.982Z,33.46
2018-07-31T12:07:41.505Z,33.80
2018-07-31T12:10:27.809Z,33.51
2018-07-31T12:12:56.391Z,33.04
2018-07-31T12:15:24.859Z,33.05
2018-07-31T12:17:53.381Z,32.48
2018-07-31T12:20:22.103Z,32.29
2018-07-31T12:22:50.608Z,31.65
2018-07-31T12:25:19.218Z,30.71
2018-07-31T12:27:47.730Z,30.41
2018-07-31T12:30:16.277Z,30.11
2018-07-31T12:32:44.748Z,30.37
2018-07-31T12:35:13.235Z,29.35
2018-07-31T12:37:41.707Z,29.31
2018-07-31T12:40:10.208Z,28.81
2018-07-31T12:42:38.768Z,28.22
2018-07-31T12:45:07.300Z,27.45
2018-07-31T12:47:35.849Z,27.08
2018-07-31T12:50:08.291Z,26.18
2018-07-31T12:52:37.406Z,25.98
2018-07-31T12:55:05.915Z,25.17
2018-07-31T12:57:34.481Z,24.79
2018-07-31T13:00:03.338Z,24.90
2018-07-31T13:02:31.877Z,24.64
2018-07-31T13:05:00.472Z,23.67
2018-07-31T13:07:28.952Z,24.02
2018-07-31T13:09:57.541Z,24.63
2018-07-31T13:12:26.078Z,26.58
2018-07-31T13:14:54.669Z,27.27
2018-07-31T13:17:23.237Z,25.50
2018-07-31T13:19:51.709Z,24.21
2018-07-31T13:22:20.233Z,24.20
2018-07-31T13:24:48.995Z,25.50
2018-07-31T13:27:17.484Z,25.31
2018-07-31T13:29:46.348Z,25.06
2018-07-31T13:32:14.845Z,24.39
2018-07-31T13:34:43.342Z,24.18
2018-07-31T13:37:11.946Z,23.59
2018-07-31T13:39:40.627Z,23.87
2018-07-31T13:42:09.111Z,24.61
2018-07-31T13:44:37.690Z,24.75
2018-07-31T13:47:06.232Z,24.86
2018-07-31T13:49:34.743Z,24.18
2018-07-31T13:52:03.291Z,24.52
2018-07-31T13:54:31.776Z,24.12
2018-07-31T13:57:00.340Z,25.56
2018-07-31T13:59:29.155Z,26.17
2018-07-31T14:01:57.743Z,26.32
2018-07-31T14:04:34.728Z,25.32
2018-07-31T14:07:04.833Z,25.19
2018-07-31T14:09:33.420Z,25.68
2018-07-31T14:12:02.001Z,26.33
2018-07-31T14:14:30.471Z,26.49
2018-07-31T14:16:58.967Z,27.06
2018-07-31T14:19:27.437Z,26.78
2018-07-31T14:21:55.920Z,26.25
2018-07-31T14:24:24.453Z,25.69
2018-07-31T14:27:13.972Z,26.06
2018-07-31T14:29:42.917Z,25.88
2018-07-31T14:32:11.460Z,26.30
2018-07-31T14:34:40.073Z,26.64
2018-07-31T14:37:08.969Z,26.29
2018-07-31T14:39:38.091Z,26.12
2018-07-31T14:42:06.625Z,26.37
2018-07-31T14:44:35.087Z,26.64
2018-07-31T14:47:04.585Z,26.11
2018-07-31T14:49:32.993Z,25.80
2018-07-31T14:52:01.545Z,25.81
2018-07-31T14:54:30.042Z,26.02
2018-07-31T14:56:58.520Z,26.42
2018-07-31T14:59:26.980Z,26.38
2018-07-31T15:01:55.499Z,26.10
2018-07-31T15:04:24.052Z,25.99
2018-07-31T15:06:52.548Z,27.44
2018-07-31T15:09:20.997Z,27.67
2018-07-31T15:11:49.515Z,27.61
2018-07-31T15:14:18.079Z,27.47
2018-07-31T15:16:46.618Z,28.36
2018-07-31T15:19:15.254Z,28.11
2018-07-31T15:21:43.736Z,28.44
2018-07-31T15:24:12.208Z,28.02
2018-07-31T15:26:40.796Z,27.58
2018-07-31T15:29:09.317Z,27.50
2018-07-31T15:31:37.937Z,27.98
2018-07-31T15:34:06.659Z,27.66
2018-07-31T15:36:35.270Z,28.26
2018-07-31T15:39:05.053Z,28.03
2018-07-31T15:41:33.536Z,27.64
2018-07-31T15:44:02.114Z,27.89
2018-07-31T15:46:39.295Z,27.74
2018-07-31T15:49:08.121Z,27.99
2018-07-31T15:51:36.672Z,28.05
2018-07-31T15:54:05.232Z,28.00
2018-07-31T15:56:33.636Z,28.58
2018-07-31T15:59:02.222Z,29.10
2018-07-31T16:01:30.793Z,29.51
2018-07-31T16:03:59.277Z,29.99
2018-07-31T16:06:27.792Z,30.02
2018-07-31T16:08:56.363Z,31.64
2018-07-31T16:11:24.916Z,30.78
2018-07-31T16:13:53.348Z,30.64
2018-07-31T16:16:21.844Z,30.53
2018-07-31T16:18:50.389Z,31.20
2018-07-31T16:21:18.954Z,30.81
2018-07-31T16:23:47.425Z,30.90
2018-07-31T16:26:15.957Z,30.73
2018-07-31T16:28:44.540Z,30.63
2018-07-31T16:31:13.081Z,30.90
2018-07-31T16:33:41.613Z,31.18
2018-07-31T16:36:10.148Z,31.29
2018-07-31T16:38:38.620Z,31.06
2018-07-31T16:41:07.284Z,30.54
2018-07-31T16:43:35.791Z,30.58
2018-07-31T16:46:04.273Z,31.17
2018-07-31T16:48:32.765Z,31.58
2018-07-31T16:51:01.249Z,32.51
2018-07-31T16:53:29.708Z,32.29
2018-07-31T16:55:58.192Z,32.29
2018-07-31T16:58:26.664Z,32.44
2018-07-31T17:00:55.159Z,32.47
2018-07-31T17:03:23.766Z,32.82
2018-07-31T17:05:52.297Z,33.47
2018-07-31T17:08:20.841Z,32.89
2018-07-31T17:10:49.389Z,33.99
2018-07-31T17:13:17.879Z,34.11
2018-07-31T17:15:46.460Z,34.24
2018-07-31T17:18:15.143Z,34.33
2018-07-31T17:20:43.628Z,34.58
2018-07-31T17:23:12.195Z,34.48
2018-07-31T17:25:41.403Z,34.28
2018-07-31T17:28:09.946Z,34.31
2018-07-31T17:30:38.502Z,35.19
2018-07-31T17:33:07.134Z,35.07
2018-07-31T17:35:35.652Z,35.88
2018-07-31T17:38:04.140Z,36.24
2018-07-31T17:40:32.704Z,35.62
2018-07-31T17:43:01.174Z,35.84
2018-07-31T17:45:29.683Z,35.58
2018-07-31T17:47:58.237Z,36.17
2018-07-31T17:50:26.762Z,36.52
2018-07-31T17:52:55.322Z,36.58
2018-07-31T17:55:23.891Z,37.10
2018-07-31T17:57:52.415Z,37.48
2018-07-31T18:00:20.953Z,37.60
2018-07-31T18:02:49.456Z,38.41
2018-07-31T18:05:18.158Z,37.99
2018-07-31T18:07:46.710Z,39.12
2018-07-31T18:10:15.229Z,39.63
2018-07-31T18:12:43.789Z,39.62
2018-07-31T18:15:12.353Z,40.11
2018-07-31T18:17:40.884Z,40.38
2018-07-31T18:20:09.448Z,39.76
2018-07-31T18:22:37.997Z,40.58
2018-07-31T18:25:06.592Z,41.04
2018-07-31T18:27:35.061Z,41.53
2018-07-31T18:30:03.885Z,41.77
2018-07-31T18:32:32.542Z,41.95
2018-07-31T18:35:01.077Z,42.00
2018-07-31T18:37:29.741Z,42.57
2018-07-31T18:39:58.410Z,42.50
2018-07-31T18:42:26.858Z,42.38
2018-07-31T18:44:55.371Z,42.61
2018-07-31T18:47:23.949Z,42.75
2018-07-31T18:49:52.729Z,42.95
2018-07-31T18:52:21.275Z,43.12
2018-07-31T18:54:49.842Z,43.82
2018-07-31T18:57:18.376Z,43.46
2018-07-31T18:59:46.874Z,43.72
2018-07-31T19:02:15.369Z,43.95
2018-07-31T19:04:43.827Z,43.82
2018-07-31T19:07:12.312Z,44.43
2018-07-31T19:09:40.813Z,44.84
2018-07-31T19:12:09.386Z,44.93
2018-07-31T19:14:37.932Z,44.79
2018-07-31T19:17:06.761Z,45.88
2018-07-31T19:19:35.250Z,46.00
2018-07-31T19:22:03.855Z,45.69
2018-07-31T19:24:32.431Z,45.60
2018-07-31T19:27:01.033Z,46.16
2018-07-31T19:29:29.485Z,45.91
2018-07-31T19:31:58.075Z,46.49
2018-07-31T19:34:27.061Z,47.05
2018-07-31T19:36:55.734Z,46.59
2018-07-31T19:39:24.336Z,46.64
2018-07-31T19:41:52.993Z,47.57
2018-07-31T19:44:21.412Z,47.32
2018-07-31T19:46:50.077Z,47.75
2018-07-31T19:49:18.712Z,48.34
2018-07-31T19:51:47.385Z,48.21
2018-07-31T19:54:16.084Z,48.14
2018-07-31T19:56:44.605Z,48.02
2018-07-31T19:59:13.084Z,48.43
2018-07-31T20:01:41.674Z,48.56
2018-07-31T20:04:10.295Z,48.91
2018-07-31T20:06:38.883Z,48.75
2018-07-31T20:09:08.662Z,49.22
2018-07-31T20:11:37.253Z,49.76
2018-07-31T20:14:05.951Z,49.86
2018-07-31T20:16:34.591Z,49.77
2018-07-31T20:19:03.178Z,50.21
2018-07-31T20:21:31.933Z,50.01
2018-07-31T20:24:00.510Z,50.72
2018-07-31T20:26:29.080Z,50.55
2018-07-31T20:28:57.658Z,51.24
2018-07-31T20:31:26.233Z,51.00
2018-07-31T20:33:54.719Z,51.61
2018-07-31T20:36:23.482Z,51.58
2018-07-31T20:38:52.461Z,51.32
2018-07-31T20:41:21.055Z,51.84
2018-07-31T20:43:49.682Z,52.75
2018-07-31T20:46:18.788Z,52.21
2018-07-31T20:48:47.317Z,52.47
2018-07-31T20:51:15.898Z,52.88
2018-07-31T20:53:44.533Z,53.69
2018-07-31T20:56:13.183Z,53.72
2018-07-31T20:58:41.789Z,53.88
2018-07-31T21:01:10.387Z,53.61
2018-07-31T21:03:38.993Z,54.07
2018-07-31T21:09:37.039Z,55.03
2018-07-31T21:12:05.736Z,55.47
2018-07-31T21:14:34.340Z,55.28
2018-07-31T21:17:02.953Z,54.57
2018-07-31T21:19:31.483Z,54.51
2018-07-31T21:22:00.659Z,56.03
2018-07-31T21:24:29.475Z,55.93
2018-07-31T21:26:58.065Z,56.38
2018-07-31T21:29:26.662Z,57.36
2018-07-31T21:31:55.446Z,57.62
2018-07-31T21:34:24.280Z,57.67
2018-07-31T21:36:52.971Z,58.00
2018-07-31T21:39:21.546Z,58.33
2018-07-31T21:41:50.106Z,59.17
2018-07-31T21:44:18.581Z,58.73
2018-07-31T21:46:47.209Z,58.79
2018-07-31T21:49:15.724Z,59.17
2018-07-31T21:51:44.198Z,59.23
2018-07-31T21:54:12.765Z,59.86
2018-07-31T21:56:41.388Z,59.86
2018-07-31T21:59:10.062Z,60.28
2018-07-31T22:01:38.663Z,59.75
2018-07-31T22:04:07.410Z,60.41
2018-07-31T22:06:36.014Z,60.71
2018-07-31T22:09:06.702Z,60.59
2018-07-31T22:11:35.229Z,60.82
2018-07-31T22:14:04.722Z,59.66
2018-07-31T22:16:33.370Z,59.26
2018-07-31T22:19:02.061Z,59.59
2018-07-31T22:21:30.608Z,59.27
2018-07-31T22:23:59.166Z,58.76
2018-07-31T22:26:27.714Z,58.74
2018-07-31T22:28:56.373Z,59.12
2018-07-31T22:31:24.924Z,59.15
2018-07-31T22:33:53.568Z,58.76
2018-07-31T22:36:22.154Z,58.63
2018-07-31T22:38:50.686Z,58.47
2018-07-31T22:41:19.263Z,58.76
2018-07-31T22:43:47.829Z,59.21
2018-07-31T22:46:16.425Z,60.45
2018-07-31T22:48:49.826Z,60.44
2018-07-31T22:51:18.335Z,60.84
2018-07-31T22:53:46.893Z,61.88
2018-07-31T22:56:15.487Z,62.60
2018-07-31T22:58:44.071Z,63.51
2018-07-31T23:01:12.678Z,64.35
2018-07-31T23:03:41.135Z,63.59
2018-07-31T23:06:09.654Z,64.11
2018-07-31T23:08:38.084Z,64.63
2018-07-31T23:11:06.752Z,65.56
2018-07-31T23:13:35.257Z,65.99
2018-07-31T23:16:03.765Z,65.32
2018-07-31T23:18:32.258Z,66.52
2018-07-31T23:21:00.689Z,66.46
2018-07-31T23:23:29.173Z,67.31
2018-07-31T23:25:57.658Z,66.54
2018-07-31T23:28:26.190Z,65.89
2018-07-31T23:30:54.731Z,66.23
2018-07-31T23:33:23.329Z,66.28
2018-07-31T23:35:51.805Z,66.58
2018-07-31T23:38:20.407Z,67.64
2018-07-31T23:40:48.922Z,67.92
2018-07-31T23:43:17.370Z,68.49
2018-07-31T23:45:45.938Z,68.50
2018-07-31T23:48:14.406Z,68.00
2018-07-31T23:50:43.060Z,67.93
2018-07-31T23:53:11.494Z,68.22
2018-07-31T23:55:40.098Z,67.92
2018-07-31T23:58:08.657Z,67.13
